createdAt,value
2023-02-11T09:26:44.957Z,980.60
2023-02-11T09:27:45.920Z,980.60
2023-02-11T09:28:46.017Z,980.59
2023-02-11T09:29:45.882Z,980.60
2023-02-11T09:30:45.975Z,980.56
2023-02-11T09:31:45.953Z,980.54
2023-02-11T09:32:45.837Z,980.53
2023-02-11T09:33:45.841Z,980.51
2023-02-11T09:34:45.803Z,980.49
2023-02-11T09:35:45.833Z,980.51
2023-02-11T09:36:45.787Z,980.53
2023-02-11T09:37:45.780Z,980.53
2023-02-11T09:38:45.775Z,980.53
2023-02-11T09:39:45.791Z,980.51
2023-02-11T09:40:45.767Z,980.49
2023-02-11T09:41:45.731Z,980.45
2023-02-11T09:42:45.718Z,980.42
2023-02-11T09:43:45.718Z,980.40
2023-02-11T09:44:45.748Z,980.40
2023-02-11T09:45:45.773Z,980.39
2023-02-11T09:46:45.673Z,980.37
2023-02-11T09:47:45.699Z,980.34
2023-02-11T09:48:45.682Z,980.32
2023-02-11T09:49:45.680Z,980.31
2023-02-11T09:50:45.646Z,980.33
2023-02-11T09:51:45.629Z,980.35
2023-02-11T09:52:45.612Z,980.38
2023-02-11T09:53:45.619Z,980.38
2023-02-11T09:54:45.598Z,980.36
2023-02-11T09:55:45.597Z,980.37
2023-02-11T09:56:45.575Z,980.35
2023-02-11T09:57:45.572Z,980.40
2023-02-11T09:58:45.604Z,980.39
2023-02-11T09:59:45.599Z,980.42
2023-02-11T10:00:45.555Z,980.45
2023-02-11T10:01:45.598Z,980.48
2023-02-11T10:02:45.504Z,980.51
2023-02-11T10:03:45.510Z,980.54
2023-02-11T10:04:45.493Z,980.57
2023-02-11T10:05:45.527Z,980.58
2023-02-11T10:06:45.470Z,980.60
2023-02-11T10:07:45.492Z,980.60
2023-02-11T10:08:45.462Z,980.61
